Alburgh, New York
Current Conditions -  °F | °C
As of 9:29 AM on Sunday 23 Nov 2014 (Local Time) from KMSS Reporting Station
Haze Haze  
Wind Chill: 39°   Ceiling: 1500
Heat Index: 43°   Visibility: 2mi
Dew Point: 43°   Wind: 6mph
Humidity: 100%   Direction: 200°SSW
Pressure: 30.05"   Gusts: NA
Location:  44.8293°N, 74.5271°W
Report Text: KMSS 231429Z AUTO 20005KT 2SM BR SCT006 OVC015 06/06 A3005 RMK AO2 T00610061 $
Loading
Personal Weather Stations






























Interactive Weather Map New forecast layout! Learn more

10-Day Weather Forecast

Advertisements
Track Severe Weather on mobile